createdAt,value
2022-11-24T04:55:17.665Z,99430.66
2022-11-24T04:58:20.009Z,99434.63
2022-11-24T05:01:22.179Z,99446.47
2022-11-24T05:04:24.741Z,99447.44
2022-11-24T05:07:26.971Z,99450.19
2022-11-24T05:10:35.204Z,99453.56
2022-11-24T05:13:37.264Z,99454.44
2022-11-24T05:16:39.652Z,99457.00
2022-11-24T05:19:41.764Z,99466.38
2022-11-24T05:22:44.600Z,99458.56
2022-11-24T05:25:47.966Z,99456.22
2022-11-24T05:28:50.467Z,99465.66
2022-11-24T05:31:52.617Z,99470.81
2022-11-24T05:34:55.191Z,99474.28
2022-11-24T05:37:58.653Z,99477.13
2022-11-24T05:41:05.443Z,99470.91
2022-11-24T05:44:07.576Z,99475.47
2022-11-24T05:47:09.933Z,99483.31
2022-11-24T05:50:14.619Z,99483.75
2022-11-24T05:53:16.925Z,99495.50
2022-11-24T05:56:19.172Z,99486.84
2022-11-24T05:59:21.852Z,99482.81
2022-11-24T06:02:25.434Z,99499.88
2022-11-24T06:05:29.227Z,99500.09
2022-11-24T06:08:31.477Z,99503.44
2022-11-24T06:11:34.024Z,99491.47
2022-11-24T06:14:36.740Z,99489.87
2022-11-24T06:17:39.688Z,99495.56
2022-11-24T06:20:42.248Z,99502.50
2022-11-24T06:23:49.082Z,99511.84
2022-11-24T06:26:51.124Z,99512.53
2022-11-24T06:29:53.477Z,99524.59
2022-11-24T06:32:55.606Z,99521.75
2022-11-24T06:36:03.445Z,99526.97
2022-11-24T06:39:07.012Z,99542.63
2022-11-24T06:42:09.345Z,99535.53
2022-11-24T06:45:11.419Z,99545.34
2022-11-24T06:48:13.751Z,99553.56
2022-11-24T06:51:15.879Z,99558.28
2022-11-24T06:54:21.046Z,99558.13
2022-11-24T06:57:23.089Z,99562.72
2022-11-24T07:00:25.504Z,99569.28
2022-11-24T07:03:27.653Z,99569.44
2022-11-24T07:06:30.004Z,99579.06
2022-11-24T07:09:32.059Z,99579.81
2022-11-24T07:12:35.304Z,99588.22
2022-11-24T07:15:37.409Z,99586.81
2022-11-24T07:18:39.752Z,99599.63
2022-11-24T07:21:41.863Z,99602.53
2022-11-24T07:24:44.186Z,99596.41
2022-11-24T07:27:46.216Z,99606.03
2022-11-24T07:30:48.561Z,99602.28
2022-11-24T07:33:52.532Z,99615.28
2022-11-24T07:36:54.865Z,99597.91
2022-11-24T07:39:56.905Z,99608.69
2022-11-24T07:43:01.467Z,99607.91
2022-11-24T07:46:07.271Z,99611.66
2022-11-24T07:49:13.015Z,99610.94
2022-11-24T07:52:15.156Z,99616.16
2022-11-24T07:55:17.527Z,99619.53
2022-11-24T07:58:19.616Z,99622.06
2022-11-24T08:01:22.047Z,99619.47
2022-11-24T08:04:24.444Z,99621.25
2022-11-24T08:07:26.583Z,99619.53
2022-11-24T08:10:28.969Z,99619.53
2022-11-24T08:13:31.305Z,99611.38
2022-11-24T08:16:33.695Z,99618.59
2022-11-24T08:19:36.097Z,99611.81
2022-11-24T08:22:38.604Z,99614.19
2022-11-24T08:25:40.620Z,99624.22
2022-11-24T08:28:43.859Z,99632.16
2022-11-24T08:31:45.923Z,99627.44
2022-11-24T08:34:48.289Z,99639.69
2022-11-24T08:37:50.369Z,99642.22
2022-11-24T08:40:52.657Z,99655.81
2022-11-24T08:43:55.372Z,99666.06
2022-11-24T08:46:57.709Z,99656.47
2022-11-24T08:49:59.813Z,99651.25
2022-11-24T08:53:02.156Z,99645.56
2022-11-24T08:56:05.682Z,99657.00
2022-11-24T08:59:08.090Z,99652.56
2022-11-24T09:02:12.217Z,99650.22
2022-11-24T09:05:49.703Z,99656.41
2022-11-24T09:08:37.725Z,99662.81
2022-11-24T09:11:40.069Z,99660.84
2022-11-24T09:14:42.106Z,99669.56
2022-11-24T09:17:45.292Z,99660.69
2022-11-24T09:20:47.321Z,99672.09
2022-11-24T09:23:52.120Z,99676.47
2022-11-24T09:26:55.439Z,99670.53
2022-11-24T09:29:57.739Z,99665.59
2022-11-24T09:32:59.796Z,99674.13
2022-11-24T09:36:02.663Z,99674.94
2022-11-24T09:39:05.175Z,99673.22
2022-11-24T09:42:14.802Z,99685.34
2022-11-24T09:46:05.147Z,99676.88
2022-11-24T09:49:14.056Z,99673.56
2022-11-24T09:52:35.638Z,99661.09
2022-11-24T09:55:48.561Z,99667.91
2022-11-24T09:59:05.194Z,99664.38
2022-11-24T10:02:13.193Z,99668.84
2022-11-24T10:05:15.657Z,99669.53
2022-11-24T10:08:44.321Z,99666.09
2022-11-24T10:11:58.753Z,99665.22
2022-11-24T10:15:13.065Z,99670.50
2022-11-24T10:19:00.341Z,99663.56
2022-11-24T10:22:17.391Z,99672.09
2022-11-24T10:25:29.561Z,99678.09
2022-11-24T10:28:58.479Z,99670.75
2022-11-24T10:32:10.812Z,99669.91
2022-11-24T10:35:19.817Z,99681.19
2022-11-24T10:38:35.008Z,99674.31
2022-11-24T10:41:48.553Z,99679.47
2022-11-24T10:45:13.672Z,99680.44
2022-11-24T10:48:21.034Z,99688.63
2022-11-24T10:52:01.390Z,99695.56
2022-11-24T10:55:05.485Z,99700.62
2022-11-24T10:58:15.773Z,99701.56
2022-11-24T11:01:17.835Z,99711.31
2022-11-24T11:04:27.689Z,99721.78
2022-11-24T11:07:29.841Z,99709.66
2022-11-24T11:10:32.241Z,99715.66
2022-11-24T11:13:34.268Z,99726.25
2022-11-24T11:16:42.291Z,99724.44
2022-11-24T11:19:49.352Z,99727.06
2022-11-24T11:22:58.773Z,99731.41
2022-11-24T11:26:27.341Z,99736.53
2022-11-24T11:36:23.372Z,99735.72
2022-11-24T11:39:32.866Z,99728.91
2022-11-24T11:46:16.901Z,99733.34
2022-11-24T11:49:19.461Z,99729.06
2022-11-24T11:52:44.620Z,99734.16
2022-11-24T11:55:57.488Z,99737.69
2022-11-24T11:59:28.712Z,99739.22
2022-11-24T12:02:57.553Z,99742.78
2022-11-24T12:06:25.109Z,99737.47
2022-11-24T12:10:01.814Z,99739.22
2022-11-24T12:13:30.857Z,99749.66
2022-11-24T12:16:32.818Z,99743.75
2022-11-24T12:19:53.193Z,99738.56
2022-11-24T12:23:05.680Z,99734.16
2022-11-24T12:26:29.297Z,99738.50
2022-11-24T12:29:52.103Z,99733.19
2022-11-24T12:33:24.284Z,99736.69
2022-11-24T12:36:41.197Z,99746.12
2022-11-24T12:39:56.828Z,99741.78
2022-11-24T12:43:33.846Z,99745.09
2022-11-24T12:46:50.697Z,99748.47
2022-11-24T12:50:13.080Z,99760.72
2022-11-24T12:53:28.470Z,99764.19
2022-11-24T12:56:43.469Z,99770.47
2022-11-24T13:00:16.037Z,99791.41
2022-11-24T13:03:52.971Z,99769.56
2022-11-24T13:07:05.468Z,99787.84
2022-11-24T13:10:53.607Z,99778.28
2022-11-24T13:14:13.957Z,99785.31
2022-11-24T13:17:50.277Z,99773.22
2022-11-24T13:20:56.741Z,99789.69
2022-11-24T13:24:04.822Z,99788.75
2022-11-24T13:27:13.151Z,99793.06
2022-11-24T13:30:33.675Z,99790.50
2022-11-24T13:33:36.424Z,99788.66
2022-11-24T13:36:53.587Z,99789.50
2022-11-24T13:39:57.167Z,99795.75
2022-11-24T13:43:01.423Z,99800.16
2022-11-24T13:46:04.290Z,99795.87
2022-11-24T13:49:13.930Z,99799.19
2022-11-24T13:52:34.712Z,99795.69
2022-11-24T13:55:38.947Z,99807.97
2022-11-24T13:59:15.968Z,99812.38
2022-11-24T14:02:23.914Z,99807.16
2022-11-24T14:05:48.052Z,99811.41
2022-11-24T14:08:50.280Z,99823.47
2022-11-24T14:12:15.091Z,99828.69
2022-11-24T14:15:29.467Z,99818.25
2022-11-24T14:18:33.836Z,99830.41
2022-11-24T14:21:41.231Z,99839.16
2022-11-24T14:24:47.427Z,99847.03
2022-11-24T14:27:49.872Z,99838.22
2022-11-24T14:31:07.200Z,99849.63
2022-11-24T14:34:15.341Z,99845.16
2022-11-24T14:37:19.338Z,99856.25
2022-11-24T14:40:37.355Z,99851.91
2022-11-24T14:43:39.539Z,99859.72
2022-11-24T14:46:42.157Z,99861.44
2022-11-24T14:49:44.706Z,99866.72
2022-11-24T14:52:55.977Z,99865.78
2022-11-24T14:56:09.048Z,99875.06
2022-11-24T14:59:22.164Z,99874.09
2022-11-24T15:02:47.826Z,99884.66
2022-11-24T15:05:57.041Z,99895.13
2022-11-24T15:08:59.381Z,99905.53
2022-11-24T15:12:18.139Z,99909.75
2022-11-24T15:15:24.015Z,99901.81
2022-11-24T15:18:40.736Z,99912.00
2022-11-24T15:21:43.072Z,99908.53
2022-11-24T15:24:53.628Z,99912.97
2022-11-24T15:27:56.372Z,99908.44
2022-11-24T15:31:03.208Z,99907.50
2022-11-24T15:34:06.360Z,99915.13
2022-11-24T15:37:11.594Z,99914.12
2022-11-24T15:40:14.570Z,99918.59
2022-11-24T15:43:31.340Z,99926.16
2022-11-24T15:46:37.977Z,99924.87
2022-11-24T15:49:40.251Z,99923.88
2022-11-24T15:52:43.179Z,99918.81
2022-11-24T15:55:45.305Z,99924.66
2022-11-24T15:58:48.442Z,99923.84
2022-11-24T16:01:51.017Z,99939.28
2022-11-24T16:04:53.440Z,99938.44
2022-11-24T16:07:55.542Z,99936.31
2022-11-24T16:10:57.916Z,99945.88
2022-11-24T16:13:59.995Z,99950.38
2022-11-24T16:17:02.772Z,99942.47
2022-11-24T16:20:05.719Z,99944.03
2022-11-24T16:23:08.080Z,99942.25
2022-11-24T16:26:10.458Z,99941.47
2022-11-24T16:29:13.043Z,99948.22
2022-11-24T16:32:15.177Z,99938.69
2022-11-24T16:35:17.636Z,99944.84
2022-11-24T16:38:20.339Z,99935.97
2022-11-24T16:41:22.708Z,99942.13
2022-11-24T16:44:24.790Z,99948.03
2022-11-24T16:47:27.344Z,99957.53
2022-11-24T16:50:29.372Z,99959.00
